createdAt,value
2023-02-09T00:01:31.258Z,7.45
2023-02-09T00:03:59.072Z,7.07
2023-02-09T00:06:26.511Z,7.78
2023-02-09T00:08:53.769Z,6.90
2023-02-09T00:11:21.824Z,6.28
2023-02-09T00:13:48.492Z,7.10
2023-02-09T00:16:15.196Z,7.32
2023-02-09T00:18:42.044Z,6.80
2023-02-09T00:21:10.941Z,7.22
2023-02-09T00:23:40.975Z,7.10
2023-02-09T00:26:12.291Z,6.80
2023-02-09T00:28:38.971Z,7.07
2023-02-09T00:31:08.005Z,7.57
2023-02-09T00:33:34.872Z,7.80
2023-02-09T00:36:04.492Z,7.25
2023-02-09T00:38:31.245Z,7.03
2023-02-09T00:40:57.945Z,6.13
2023-02-09T00:43:24.658Z,6.90
2023-02-09T00:45:51.379Z,6.18
2023-02-09T00:48:18.333Z,7.20
2023-02-09T00:50:45.448Z,6.93
2023-02-09T00:53:12.324Z,9.75
2023-02-09T00:55:39.051Z,7.55
2023-02-09T00:58:05.677Z,7.47
2023-02-09T01:00:32.507Z,8.63
2023-02-09T01:02:59.349Z,8.75
2023-02-09T01:05:26.134Z,7.32
2023-02-09T01:07:53.229Z,7.15
2023-02-09T01:10:19.896Z,7.97
2023-02-09T01:12:46.697Z,7.88
2023-02-09T01:15:13.665Z,9.75
2023-02-09T01:21:28.735Z,7.20
2023-02-09T01:23:55.545Z,8.02
2023-02-09T01:26:22.548Z,7.05
2023-02-09T01:28:53.803Z,7.90
2023-02-09T01:31:28.107Z,7.93
2023-02-09T01:33:56.470Z,7.78
2023-02-09T01:36:23.451Z,8.40
2023-02-09T01:38:51.187Z,7.80
2023-02-09T01:41:18.371Z,7.78
2023-02-09T01:43:53.367Z,7.70
2023-02-09T01:46:21.027Z,8.05
2023-02-09T01:48:50.613Z,7.93
2023-02-09T01:51:18.137Z,8.10
2023-02-09T01:53:44.800Z,8.25
2023-02-09T01:56:16.013Z,7.88
2023-02-09T01:58:43.014Z,8.10
2023-02-09T02:01:09.854Z,7.22
2023-02-09T02:03:36.595Z,7.40
2023-02-09T02:06:08.733Z,7.43
2023-02-09T02:08:53.701Z,10.40
2023-02-09T02:11:23.573Z,7.85
2023-02-09T02:13:50.801Z,7.00
2023-02-09T02:16:26.616Z,7.38
2023-02-09T02:19:29.984Z,7.82
2023-02-09T02:22:18.125Z,7.90
2023-02-09T02:25:18.843Z,7.60
2023-02-09T02:28:23.290Z,7.13
2023-02-09T02:31:21.211Z,6.95
2023-02-09T02:33:56.846Z,7.75
2023-02-09T02:36:46.900Z,7.03
2023-02-09T02:39:33.572Z,8.35
2023-02-09T02:42:31.800Z,7.60
2023-02-09T02:45:29.254Z,8.23
2023-02-09T02:48:12.752Z,9.00
2023-02-09T02:50:53.244Z,8.52
2023-02-09T02:53:24.542Z,8.30
2023-02-09T02:55:54.024Z,9.32
2023-02-09T02:58:22.583Z,8.38
2023-02-09T03:00:52.699Z,7.43
2023-02-09T03:03:22.891Z,7.90
2023-02-09T03:05:51.435Z,8.43
2023-02-09T03:08:18.112Z,8.77
2023-02-09T03:10:45.565Z,8.45
2023-02-09T03:13:12.392Z,8.50
2023-02-09T03:16:02.086Z,7.70
2023-02-09T03:18:53.260Z,7.78
2023-02-09T03:21:31.913Z,8.88
2023-02-09T03:24:04.265Z,10.43
2023-02-09T03:27:00.214Z,7.22
2023-02-09T03:29:29.326Z,9.95
2023-02-09T03:31:56.872Z,9.38
2023-02-09T03:34:23.667Z,6.78
2023-02-09T03:36:56.328Z,6.95
2023-02-09T03:39:23.517Z,7.15
2023-02-09T03:41:50.258Z,6.60
2023-02-09T03:44:29.271Z,8.30
2023-02-09T03:46:55.914Z,7.05
2023-02-09T03:49:23.322Z,7.72
2023-02-09T03:51:50.119Z,7.60
2023-02-09T03:54:16.796Z,8.70
2023-02-09T03:56:43.503Z,6.75
2023-02-09T03:59:10.454Z,6.75
2023-02-09T04:01:37.233Z,6.68
2023-02-09T04:04:04.671Z,9.70
2023-02-09T04:06:33.165Z,8.35
2023-02-09T04:09:00.936Z,6.70
2023-02-09T04:11:27.904Z,8.70
2023-02-09T04:13:55.133Z,8.35
2023-02-09T04:16:21.942Z,7.30
2023-02-09T04:18:48.659Z,7.35
2023-02-09T04:21:15.298Z,6.50
2023-02-09T04:23:42.413Z,7.95
2023-02-09T04:26:09.234Z,9.48
2023-02-09T04:28:35.977Z,7.68
2023-02-09T04:31:02.918Z,9.88
2023-02-09T04:33:29.660Z,8.68
2023-02-09T04:35:56.886Z,7.88
2023-02-09T04:38:23.576Z,7.28
2023-02-09T04:40:51.702Z,9.13
2023-02-09T04:43:18.648Z,8.30
2023-02-09T04:45:45.850Z,7.55
2023-02-09T04:48:15.617Z,9.40
2023-02-09T04:50:42.696Z,8.63
2023-02-09T04:53:10.425Z,8.75
2023-02-09T04:55:41.681Z,9.10
2023-02-09T04:58:31.448Z,8.48
2023-02-09T05:00:58.421Z,9.18
2023-02-09T05:03:26.036Z,9.65
2023-02-09T05:05:57.566Z,17.95
2023-02-09T05:08:24.500Z,8.68
2023-02-09T05:10:52.136Z,11.05
2023-02-09T05:13:20.339Z,8.25
2023-02-09T05:15:47.558Z,8.52
2023-02-09T05:18:14.674Z,11.77
2023-02-09T05:20:43.429Z,8.05
2023-02-09T05:23:11.069Z,8.02
2023-02-09T05:25:37.842Z,7.78
2023-02-09T05:28:05.246Z,7.15
2023-02-09T05:30:32.342Z,8.93
2023-02-09T05:32:59.402Z,7.97
2023-02-09T05:35:26.464Z,7.60
2023-02-09T05:37:53.095Z,7.88
2023-02-09T05:40:19.860Z,8.02
2023-02-09T05:42:46.497Z,9.07
2023-02-09T05:45:13.228Z,8.98
2023-02-09T05:47:40.037Z,7.15
2023-02-09T05:50:06.918Z,8.40
2023-02-09T05:52:33.602Z,10.05
2023-02-09T05:55:00.274Z,11.65
2023-02-09T05:57:26.949Z,7.38
2023-02-09T05:59:53.659Z,11.73
2023-02-09T06:02:20.991Z,9.00
2023-02-09T06:04:47.796Z,8.25
2023-02-09T06:07:14.443Z,8.07
2023-02-09T06:09:41.120Z,7.93
2023-02-09T06:12:07.801Z,11.93
2023-02-09T06:14:34.459Z,7.22
2023-02-09T06:17:01.137Z,6.50
2023-02-09T06:19:27.798Z,9.63
2023-02-09T06:21:54.459Z,7.88
2023-02-09T06:24:21.140Z,7.75
2023-02-09T06:26:48.159Z,7.35
2023-02-09T06:29:14.809Z,6.68
2023-02-09T06:31:41.952Z,9.70
2023-02-09T06:34:09.320Z,8.68
2023-02-09T06:36:36.093Z,7.13
2023-02-09T06:39:06.312Z,11.02
2023-02-09T06:41:32.968Z,10.52
2023-02-09T06:43:59.596Z,7.68
2023-02-09T06:46:26.832Z,8.23
2023-02-09T06:48:53.573Z,23.15
2023-02-09T06:51:20.667Z,15.90
2023-02-09T06:53:47.472Z,11.23
2023-02-09T06:56:14.405Z,13.93
2023-02-09T06:58:41.575Z,18.58
2023-02-09T07:01:15.481Z,17.95
2023-02-09T07:03:43.077Z,18.35
2023-02-09T07:06:15.969Z,15.32
2023-02-09T07:08:43.317Z,12.40
2023-02-09T07:11:12.624Z,9.82
2023-02-09T07:13:39.469Z,13.95
2023-02-09T07:16:08.435Z,8.40
2023-02-09T07:18:35.965Z,11.65
2023-02-09T07:21:06.941Z,9.10
2023-02-09T07:23:33.648Z,21.30
2023-02-09T07:26:05.396Z,14.70
2023-02-09T07:28:32.738Z,13.20
2023-02-09T07:31:10.914Z,10.23
2023-02-09T07:33:37.837Z,8.80
2023-02-09T07:36:06.531Z,9.88
2023-02-09T07:38:33.866Z,9.43
2023-02-09T07:41:02.158Z,9.05
2023-02-09T07:43:29.257Z,8.40
2023-02-09T07:46:07.012Z,9.15
2023-02-09T07:48:34.446Z,8.73
2023-02-09T07:51:01.696Z,8.40
2023-02-09T07:53:29.068Z,8.48
2023-02-09T07:55:55.992Z,9.00
2023-02-09T07:58:23.271Z,9.07
2023-02-09T08:00:51.122Z,8.15
2023-02-09T08:03:20.324Z,8.43
2023-02-09T08:05:53.209Z,7.60
2023-02-09T08:08:19.906Z,9.52
2023-02-09T08:10:46.688Z,7.90
2023-02-09T08:13:14.192Z,8.52
2023-02-09T08:15:45.249Z,7.95
2023-02-09T08:18:19.526Z,7.50
2023-02-09T08:20:47.590Z,7.47
2023-02-09T08:23:23.770Z,7.88
2023-02-09T08:25:51.770Z,7.00
2023-02-09T08:28:19.902Z,5.78
2023-02-09T08:30:48.011Z,7.40
2023-02-09T08:33:15.024Z,7.70
2023-02-09T08:35:42.440Z,6.53
2023-02-09T08:38:09.558Z,7.13
2023-02-09T08:40:40.206Z,6.45
2023-02-09T08:43:07.641Z,5.57
2023-02-09T08:45:38.518Z,5.90
2023-02-09T08:48:09.629Z,5.78
2023-02-09T08:50:38.036Z,6.00
2023-02-09T08:53:06.133Z,6.70
2023-02-09T08:55:34.265Z,6.20
2023-02-09T08:58:01.185Z,5.97
2023-02-09T09:00:28.447Z,5.97
2023-02-09T09:02:55.133Z,5.03
2023-02-09T09:05:21.847Z,5.40
2023-02-09T09:07:48.537Z,6.80
2023-02-09T09:10:15.334Z,6.40
2023-02-09T09:12:42.000Z,6.28
2023-02-09T09:15:09.147Z,5.50
2023-02-09T09:17:35.852Z,8.85
2023-02-09T09:20:02.680Z,6.15
2023-02-09T09:22:29.399Z,5.38
2023-02-09T09:24:56.311Z,5.63
2023-02-09T09:27:24.128Z,7.00
2023-02-09T09:29:52.250Z,5.93
2023-02-09T09:32:24.568Z,5.50
2023-02-09T09:34:59.242Z,8.82
2023-02-09T09:37:26.779Z,7.85
2023-02-09T09:39:53.610Z,9.38
2023-02-09T09:42:41.559Z,6.30
2023-02-09T09:45:18.348Z,5.45
2023-02-09T09:47:45.307Z,5.82
2023-02-09T09:50:18.649Z,6.18
2023-02-09T09:52:57.460Z,6.93
2023-02-09T09:55:30.848Z,6.10
2023-02-09T09:58:01.406Z,5.40
2023-02-09T10:00:37.828Z,6.95
2023-02-09T10:03:12.763Z,6.78
2023-02-09T10:05:40.164Z,8.00
2023-02-09T10:08:18.916Z,7.05
2023-02-09T10:10:49.201Z,7.05
2023-02-09T10:13:29.737Z,7.65
2023-02-09T10:15:58.238Z,7.10
2023-02-09T10:18:25.817Z,7.15
2023-02-09T10:20:52.453Z,5.82
2023-02-09T10:23:28.572Z,6.88
2023-02-09T10:26:19.869Z,7.60
2023-02-09T10:28:53.034Z,6.78
2023-02-09T10:31:31.904Z,8.00
2023-02-09T10:34:05.998Z,7.15
2023-02-09T10:36:37.288Z,8.82
2023-02-09T10:39:18.471Z,11.43
2023-02-09T10:41:49.578Z,10.32
2023-02-09T10:44:25.797Z,8.65
2023-02-09T10:47:20.382Z,7.50
2023-02-09T10:50:17.050Z,7.80
2023-02-09T10:53:18.476Z,6.45
2023-02-09T10:55:45.525Z,7.15
2023-02-09T10:58:17.701Z,13.50
2023-02-09T11:01:03.132Z,11.50
2023-02-09T11:03:30.458Z,6.35
2023-02-09T11:06:00.150Z,5.68
2023-02-09T11:08:57.789Z,6.25
2023-02-09T11:11:38.152Z,5.13
2023-02-09T11:14:12.472Z,6.00
2023-02-09T11:16:59.073Z,5.45
2023-02-09T11:19:51.800Z,11.38
2023-02-09T11:22:39.517Z,7.25
2023-02-09T11:25:26.260Z,6.07
2023-02-09T11:28:18.565Z,5.53
2023-02-09T11:31:12.464Z,5.78
2023-02-09T11:34:05.044Z,5.57
2023-02-09T11:36:41.144Z,7.63
2023-02-09T11:39:14.002Z,5.43
2023-02-09T11:42:04.307Z,5.85
2023-02-09T11:44:39.502Z,8.80
2023-02-09T11:47:11.200Z,5.07
2023-02-09T11:49:51.110Z,5.90
2023-02-09T11:52:38.242Z,6.00
2023-02-09T11:55:28.313Z,5.22
2023-02-09T11:58:17.932Z,5.82
2023-02-09T12:01:06.755Z,6.30
2023-02-09T12:03:46.139Z,5.07
2023-02-09T12:06:13.392Z,6.18
2023-02-09T12:08:53.740Z,6.07
2023-02-09T12:11:26.578Z,5.10
2023-02-09T12:14:23.745Z,6.10
2023-02-09T12:17:00.595Z,6.63
2023-02-09T12:19:37.100Z,6.80
2023-02-09T12:22:35.071Z,5.10
2023-02-09T12:25:19.457Z,6.10
2023-02-09T12:28:04.488Z,4.97
2023-02-09T12:30:40.258Z,4.87
2023-02-09T12:33:27.602Z,5.07
2023-02-09T12:36:03.364Z,7.73
2023-02-09T12:38:56.376Z,5.27
2023-02-09T12:41:41.000Z,5.83
2023-02-09T12:44:11.032Z,7.30
2023-02-09T12:46:53.585Z,5.37
2023-02-09T12:49:27.491Z,6.50
2023-02-09T12:52:16.469Z,5.53
2023-02-09T12:54:56.821Z,7.50
2023-02-09T12:57:23.865Z,6.83
2023-02-09T12:59:50.884Z,5.67
2023-02-09T13:02:39.656Z,8.50
2023-02-09T13:05:33.158Z,7.13
2023-02-09T13:08:20.106Z,6.90
2023-02-09T13:11:24.403Z,5.93
2023-02-09T13:14:04.266Z,6.30
2023-02-09T13:16:48.206Z,7.70
2023-02-09T13:19:46.814Z,12.03
2023-02-09T13:22:32.220Z,6.37
2023-02-09T13:25:01.749Z,7.20
2023-02-09T13:27:30.031Z,8.13
2023-02-09T13:29:59.044Z,6.97
2023-02-09T13:32:52.371Z,11.13
2023-02-09T13:35:30.817Z,9.10
2023-02-09T13:38:09.470Z,8.83
2023-02-09T13:40:36.421Z,9.63
2023-02-09T13:43:44.789Z,8.90
2023-02-09T13:46:24.824Z,11.30
2023-02-09T13:48:51.763Z,11.30
2023-02-09T13:51:20.676Z,8.67
2023-02-09T13:54:02.354Z,9.80
2023-02-09T13:56:31.590Z,9.13
2023-02-09T13:58:59.115Z,8.80
2023-02-09T14:01:32.749Z,8.77
2023-02-09T14:04:18.882Z,7.70
2023-02-09T14:07:02.908Z,11.73
2023-02-09T14:09:38.859Z,8.40
2023-02-09T14:12:15.983Z,12.60
2023-02-09T14:15:09.419Z,11.33
2023-02-09T14:17:37.785Z,11.07
2023-02-09T14:20:22.457Z,10.33
2023-02-09T14:23:00.115Z,6.93
2023-02-09T14:25:31.080Z,8.37
2023-02-09T14:27:58.213Z,9.70
2023-02-09T14:30:29.575Z,10.30
2023-02-09T14:32:58.399Z,10.60
2023-02-09T14:35:28.845Z,10.07
2023-02-09T14:38:02.026Z,10.03
2023-02-09T14:40:31.675Z,11.70
2023-02-09T14:43:08.895Z,10.63
2023-02-09T14:45:48.252Z,12.53
2023-02-09T14:48:19.144Z,13.37
2023-02-09T14:50:47.900Z,12.23
2023-02-09T14:53:16.461Z,9.83
2023-02-09T14:55:44.571Z,11.53
2023-02-09T14:58:18.361Z,10.10
2023-02-09T15:00:45.056Z,11.17
2023-02-09T15:03:11.753Z,14.97
2023-02-09T15:05:38.664Z,14.35
2023-02-09T15:08:09.038Z,12.00
2023-02-09T15:11:03.489Z,10.17
2023-02-09T15:13:32.508Z,11.93
2023-02-09T15:15:59.590Z,9.10
2023-02-09T15:18:27.588Z,11.70
2023-02-09T15:20:54.385Z,9.60
2023-02-09T15:23:21.164Z,9.20
2023-02-09T15:25:48.362Z,8.88
2023-02-09T15:28:28.891Z,11.80
2023-02-09T15:30:56.661Z,11.63
2023-02-09T15:33:24.979Z,10.70
2023-02-09T15:35:51.825Z,9.77
2023-02-09T15:38:18.834Z,9.43
2023-02-09T15:41:06.508Z,11.23
2023-02-09T15:43:52.139Z,14.50
2023-02-09T15:46:37.446Z,13.73
2023-02-09T15:49:05.564Z,10.05
2023-02-09T15:51:36.563Z,12.10
2023-02-09T15:54:07.526Z,13.52
2023-02-09T15:56:36.472Z,10.65
2023-02-09T15:59:05.385Z,10.05
2023-02-09T16:01:35.788Z,12.55
2023-02-09T16:04:13.538Z,11.32
2023-02-09T16:06:46.647Z,13.20
2023-02-09T16:09:26.750Z,12.13
2023-02-09T16:11:54.059Z,12.98
2023-02-09T16:14:23.410Z,12.30
2023-02-09T16:16:50.579Z,10.75
2023-02-09T16:19:17.802Z,10.80
2023-02-09T16:21:48.550Z,10.70
2023-02-09T16:24:28.708Z,9.48
2023-02-09T16:26:55.673Z,9.02
2023-02-09T16:29:25.792Z,9.75
2023-02-09T16:31:52.692Z,10.38
2023-02-09T16:34:19.719Z,11.68
2023-02-09T16:36:48.555Z,9.45
2023-02-09T16:39:21.266Z,14.45
2023-02-09T16:41:50.651Z,12.45
2023-02-09T16:44:27.011Z,11.55
2023-02-09T16:46:59.577Z,10.50
2023-02-09T16:49:36.877Z,13.60
2023-02-09T16:52:16.172Z,12.55
2023-02-09T16:54:47.425Z,11.05
2023-02-09T16:57:16.923Z,11.35
2023-02-09T16:59:44.231Z,12.38
2023-02-09T17:02:32.140Z,11.57
2023-02-09T17:04:59.699Z,11.55
2023-02-09T17:07:31.108Z,11.18
2023-02-09T17:09:57.957Z,10.48
2023-02-09T17:12:24.630Z,10.45
2023-02-09T17:14:51.461Z,12.85
2023-02-09T17:17:20.452Z,9.88
2023-02-09T17:19:49.436Z,8.80
2023-02-09T17:22:17.212Z,10.13
2023-02-09T17:24:43.896Z,11.23
2023-02-09T17:27:10.632Z,16.77
2023-02-09T17:29:37.314Z,14.38
2023-02-09T17:32:05.300Z,16.08
2023-02-09T17:34:32.240Z,12.00
2023-02-09T17:36:59.026Z,11.60
2023-02-09T17:39:25.729Z,10.07
2023-02-09T17:41:52.658Z,12.65
2023-02-09T17:44:44.628Z,13.80
2023-02-09T17:47:19.935Z,10.63
2023-02-09T17:49:47.045Z,18.25
2023-02-09T17:52:18.345Z,12.90
2023-02-09T17:54:45.773Z,15.95
2023-02-09T17:57:17.151Z,17.52
2023-02-09T17:59:45.947Z,12.88
2023-02-09T18:02:18.024Z,12.68
2023-02-09T18:04:45.285Z,13.48
2023-02-09T18:07:13.853Z,13.80
2023-02-09T18:09:40.722Z,14.27
2023-02-09T18:12:18.693Z,12.07
2023-02-09T18:14:45.430Z,11.77
2023-02-09T18:17:12.100Z,11.57
2023-02-09T18:19:38.791Z,13.77
2023-02-09T18:22:05.676Z,11.10
2023-02-09T18:24:34.786Z,13.55
2023-02-09T18:27:02.146Z,14.70
2023-02-09T18:29:30.006Z,11.75
2023-02-09T18:31:58.977Z,16.33
2023-02-09T18:34:26.546Z,14.07
2023-02-09T18:36:53.507Z,15.32
2023-02-09T18:39:20.161Z,15.23
2023-02-09T18:41:53.832Z,16.88
2023-02-09T18:44:24.329Z,17.48
2023-02-09T18:46:51.164Z,16.20
2023-02-09T18:49:17.793Z,16.10
2023-02-09T18:51:44.498Z,16.60
2023-02-09T18:54:11.302Z,18.65
2023-02-09T18:56:38.014Z,16.70
2023-02-09T18:59:05.015Z,14.63
2023-02-09T19:01:31.999Z,13.50
2023-02-09T19:03:58.737Z,14.25
2023-02-09T19:06:25.505Z,13.93
2023-02-09T19:08:52.459Z,12.20
2023-02-09T19:11:22.078Z,11.77
2023-02-09T19:14:08.901Z,11.88
2023-02-09T19:16:36.810Z,10.57
2023-02-09T19:19:04.318Z,10.90
2023-02-09T19:21:32.262Z,12.00
2023-02-09T19:23:59.208Z,13.77
2023-02-09T19:26:26.186Z,14.27
2023-02-09T19:28:52.861Z,13.15
2023-02-09T19:31:19.641Z,13.48
2023-02-09T19:33:46.409Z,13.98
2023-02-09T19:36:13.105Z,14.77
2023-02-09T19:38:39.826Z,14.00
2023-02-09T19:41:11.954Z,20.15
2023-02-09T19:43:39.871Z,15.82
2023-02-09T19:46:07.255Z,15.88
2023-02-09T19:48:34.203Z,20.85
2023-02-09T19:51:00.972Z,17.75
2023-02-09T19:53:27.783Z,14.73
2023-02-09T19:55:54.605Z,12.85
2023-02-09T19:58:21.766Z,15.52
2023-02-09T20:00:49.556Z,12.85
2023-02-09T20:03:17.312Z,12.45
2023-02-09T20:05:46.149Z,13.32
2023-02-09T20:08:16.977Z,17.90
2023-02-09T20:10:46.895Z,13.07
2023-02-09T20:13:15.674Z,14.35
2023-02-09T20:15:45.965Z,17.33
2023-02-09T20:18:14.961Z,19.10
2023-02-09T20:20:43.831Z,15.95
2023-02-09T20:23:10.621Z,18.33
2023-02-09T20:25:41.127Z,16.50
2023-02-09T20:28:08.129Z,24.73
2023-02-09T20:30:35.253Z,21.88
2023-02-09T20:33:02.117Z,22.60
2023-02-09T20:35:28.892Z,25.00
2023-02-09T20:37:55.601Z,32.85
2023-02-09T20:40:22.702Z,27.17
2023-02-09T20:43:24.817Z,50.03
2023-02-09T20:46:10.321Z,34.22
2023-02-09T20:48:37.045Z,27.27
2023-02-09T20:51:04.763Z,20.98
2023-02-09T20:53:32.029Z,18.70
2023-02-09T20:55:59.198Z,19.60
2023-02-09T20:58:25.875Z,20.42
2023-02-09T21:00:53.126Z,25.40
2023-02-09T21:03:19.992Z,22.55
2023-02-09T21:05:46.693Z,20.80
2023-02-09T21:08:13.400Z,23.70
2023-02-09T21:10:40.407Z,27.63
2023-02-09T21:13:08.458Z,22.70
2023-02-09T21:15:40.438Z,29.20
2023-02-09T21:18:07.202Z,30.40
2023-02-09T21:20:34.968Z,27.35
2023-02-09T21:23:01.760Z,24.73
2023-02-09T21:25:28.487Z,22.00
2023-02-09T21:28:01.315Z,20.42
2023-02-09T21:30:29.124Z,27.08
2023-02-09T21:32:56.375Z,22.15
2023-02-09T21:35:23.113Z,21.67
2023-02-09T21:37:49.771Z,21.55
2023-02-09T21:40:16.528Z,19.23
2023-02-09T21:42:43.603Z,24.42
2023-02-09T21:45:10.365Z,25.00
2023-02-09T21:47:39.002Z,20.77
2023-02-09T21:50:08.306Z,19.75
2023-02-09T21:52:35.522Z,22.10
2023-02-09T21:55:02.482Z,19.40
2023-02-09T21:57:29.631Z,19.90
2023-02-09T21:59:56.646Z,19.38
2023-02-09T22:02:23.407Z,23.83
2023-02-09T22:04:50.554Z,20.52
2023-02-09T22:07:17.353Z,21.40
2023-02-09T22:09:44.020Z,20.42
2023-02-09T22:12:10.718Z,21.60
2023-02-09T22:14:37.534Z,18.45
2023-02-09T22:17:04.338Z,22.75
2023-02-09T22:19:31.091Z,19.55
2023-02-09T22:21:58.147Z,19.45
2023-02-09T22:24:25.107Z,21.60
2023-02-09T22:26:51.998Z,18.27
2023-02-09T22:29:19.316Z,17.73
2023-02-09T22:31:46.593Z,17.45
2023-02-09T22:34:13.701Z,16.70
2023-02-09T22:36:40.644Z,21.02
2023-02-09T22:39:07.692Z,22.30
2023-02-09T22:41:34.879Z,19.65
2023-02-09T22:44:07.416Z,17.80
2023-02-09T22:46:39.362Z,18.05
2023-02-09T22:49:09.495Z,19.35
2023-02-09T22:51:36.796Z,19.38
2023-02-09T22:54:04.670Z,18.13
2023-02-09T22:56:32.278Z,16.75
2023-02-09T22:59:00.759Z,15.93
2023-02-09T23:01:28.438Z,16.63
2023-02-09T23:03:55.736Z,16.58
2023-02-09T23:06:26.876Z,19.45
2023-02-09T23:08:55.419Z,16.92
2023-02-09T23:11:22.964Z,17.55
2023-02-09T23:13:57.673Z,15.60
2023-02-09T23:16:33.990Z,15.27
2023-02-09T23:19:06.566Z,15.80
2023-02-09T23:21:36.643Z,15.95
2023-02-09T23:24:04.004Z,14.57
2023-02-09T23:26:31.064Z,14.98
2023-02-09T23:29:00.187Z,14.68
2023-02-09T23:31:27.864Z,13.32
2023-02-09T23:33:55.244Z,14.65
2023-02-09T23:36:28.742Z,14.75
2023-02-09T23:39:01.731Z,14.48
2023-02-09T23:41:29.431Z,14.32
2023-02-09T23:43:57.038Z,15.20
2023-02-09T23:46:28.559Z,14.70
2023-02-09T23:48:56.244Z,14.15
2023-02-09T23:51:26.708Z,15.05
2023-02-09T23:53:55.173Z,14.63
2023-02-09T23:56:23.072Z,14.45
2023-02-09T23:58:51.309Z,15.15
